createdAt,value
2022-10-24T00:00:45.557Z,12.05
2022-10-24T00:03:30.996Z,11.40
2022-10-24T00:05:57.939Z,11.55
2022-10-24T00:08:24.680Z,11.10
2022-10-24T00:10:51.658Z,11.98
2022-10-24T00:13:18.516Z,10.77
2022-10-24T00:15:48.253Z,11.88
2022-10-24T00:18:15.650Z,11.70
2022-10-24T00:23:14.842Z,11.90
2022-10-24T00:25:41.851Z,11.00
2022-10-24T00:28:08.611Z,10.45
2022-10-24T00:30:35.797Z,11.25
2022-10-24T00:33:02.578Z,10.63
2022-10-24T00:35:29.758Z,11.50
2022-10-24T00:37:56.735Z,11.13
2022-10-24T00:40:23.999Z,11.27
2022-10-24T00:42:50.978Z,11.50
2022-10-24T00:45:50.671Z,10.45
2022-10-24T00:48:40.492Z,10.70
2022-10-24T00:51:21.752Z,10.73
2022-10-24T00:53:52.950Z,10.73
2022-10-24T00:56:25.935Z,11.55
2022-10-24T00:58:54.801Z,10.77
2022-10-24T01:01:21.872Z,10.45
2022-10-24T01:03:48.696Z,11.63
2022-10-24T01:06:52.832Z,11.68
2022-10-24T01:09:44.562Z,11.10
2022-10-24T01:12:11.452Z,10.38
2022-10-24T01:15:17.468Z,11.68
2022-10-24T01:18:10.446Z,10.63
2022-10-24T01:20:44.509Z,10.55
2022-10-24T01:23:29.441Z,11.25
2022-10-24T01:26:08.204Z,9.85
2022-10-24T01:28:57.422Z,11.27
2022-10-24T01:31:42.283Z,10.40
2022-10-24T01:34:28.120Z,10.50
2022-10-24T01:37:08.702Z,10.73
2022-10-24T01:39:46.840Z,9.88
2022-10-24T01:42:17.431Z,11.75
2022-10-24T01:44:49.295Z,12.10
2022-10-24T01:47:27.028Z,10.85
2022-10-24T01:49:59.161Z,10.60
2022-10-24T01:52:31.275Z,10.98
2022-10-24T01:54:58.304Z,10.80
2022-10-24T01:57:29.789Z,10.52
2022-10-24T01:59:56.820Z,11.20
2022-10-24T02:02:43.287Z,10.70
2022-10-24T02:05:44.034Z,10.80
2022-10-24T02:08:20.002Z,10.90
2022-10-24T02:10:51.430Z,11.50
2022-10-24T02:13:31.352Z,11.93
2022-10-24T02:16:00.955Z,10.88
2022-10-24T02:18:29.682Z,11.90
2022-10-24T02:21:12.087Z,11.65
2022-10-24T02:23:48.921Z,10.95
2022-10-24T02:26:44.677Z,11.90
2022-10-24T02:29:17.016Z,11.48
2022-10-24T02:31:50.255Z,11.18
2022-10-24T02:34:19.311Z,11.13
2022-10-24T02:36:49.086Z,11.15
2022-10-24T02:39:17.548Z,10.43
2022-10-24T02:41:46.050Z,11.80
2022-10-24T02:44:15.719Z,12.45
2022-10-24T02:46:44.645Z,11.52
2022-10-24T02:49:11.446Z,13.35
2022-10-24T02:51:41.308Z,11.90
2022-10-24T02:54:08.266Z,12.18
2022-10-24T02:56:37.425Z,12.00
2022-10-24T02:59:04.216Z,13.05
2022-10-24T03:01:31.247Z,11.98
2022-10-24T03:03:58.051Z,11.05
2022-10-24T03:06:25.208Z,13.07
2022-10-24T03:08:51.985Z,12.25
2022-10-24T03:11:19.158Z,12.98
2022-10-24T03:13:46.047Z,13.48
2022-10-24T03:16:14.151Z,12.50
2022-10-24T03:18:41.334Z,12.82
2022-10-24T03:21:08.447Z,12.52
2022-10-24T03:23:35.199Z,12.30
2022-10-24T03:26:02.194Z,14.73
2022-10-24T03:28:29.093Z,13.95
2022-10-24T03:30:56.386Z,13.68
2022-10-24T03:33:23.146Z,14.45
2022-10-24T03:35:54.131Z,16.27
2022-10-24T03:38:21.885Z,12.93
2022-10-24T03:40:49.312Z,14.68
2022-10-24T03:43:16.124Z,14.68
2022-10-24T03:45:43.068Z,13.77
2022-10-24T03:48:10.830Z,16.08
2022-10-24T03:50:38.027Z,15.55
2022-10-24T03:53:05.131Z,16.48
2022-10-24T03:55:32.471Z,15.60
2022-10-24T03:57:59.412Z,16.45
2022-10-24T04:00:28.822Z,15.95
2022-10-24T04:02:56.260Z,15.32
2022-10-24T04:05:23.494Z,15.55
2022-10-24T04:07:50.242Z,16.05
2022-10-24T04:10:17.400Z,15.07
2022-10-24T04:12:44.160Z,15.38
2022-10-24T04:15:11.520Z,14.98
2022-10-24T04:17:38.274Z,15.63
2022-10-24T04:20:05.721Z,14.57
2022-10-24T04:22:32.522Z,15.63
2022-10-24T04:24:59.518Z,15.77
2022-10-24T04:27:26.367Z,16.60
2022-10-24T04:29:53.328Z,14.95
2022-10-24T04:32:20.096Z,14.57
2022-10-24T04:34:47.040Z,15.82
2022-10-24T04:37:13.803Z,16.08
2022-10-24T04:39:40.799Z,18.33
2022-10-24T04:42:07.559Z,16.13
2022-10-24T04:44:34.754Z,16.98
2022-10-24T04:47:01.513Z,16.27
2022-10-24T04:49:28.453Z,17.45
2022-10-24T04:51:55.180Z,15.63
2022-10-24T04:54:22.112Z,16.85
2022-10-24T04:56:48.905Z,16.38
2022-10-24T04:59:15.915Z,16.95
2022-10-24T05:01:42.743Z,15.32
2022-10-24T05:04:09.910Z,15.85
2022-10-24T05:06:38.414Z,18.45
2022-10-24T05:09:07.308Z,15.18
2022-10-24T05:11:34.081Z,16.35
2022-10-24T05:14:01.021Z,17.83
2022-10-24T05:16:27.760Z,15.63
2022-10-24T05:18:54.721Z,17.05
2022-10-24T05:21:21.477Z,18.10
2022-10-24T05:23:48.437Z,16.65
2022-10-24T05:26:15.147Z,16.08
2022-10-24T05:28:42.065Z,16.85
2022-10-24T05:31:08.812Z,16.80
2022-10-24T05:33:35.745Z,16.42
2022-10-24T05:36:02.604Z,16.90
2022-10-24T05:38:29.604Z,15.52
2022-10-24T05:40:56.465Z,15.02
2022-10-24T05:43:23.645Z,16.27
2022-10-24T05:48:18.508Z,15.05
2022-10-24T05:50:45.639Z,16.25
2022-10-24T05:53:13.228Z,13.88
2022-10-24T05:55:40.141Z,15.27
2022-10-24T05:58:07.462Z,15.15
2022-10-24T06:00:34.224Z,16.15
2022-10-24T06:03:01.435Z,15.35
2022-10-24T06:05:28.233Z,16.23
2022-10-24T06:07:55.272Z,14.40
2022-10-24T06:10:22.164Z,14.30
2022-10-24T06:12:49.206Z,15.27
2022-10-24T06:15:16.154Z,15.63
2022-10-24T06:17:43.115Z,13.43
2022-10-24T06:20:10.929Z,14.23
2022-10-24T06:22:37.913Z,13.95
2022-10-24T06:25:05.355Z,14.52
2022-10-24T06:27:32.421Z,13.88
2022-10-24T06:29:59.157Z,13.63
2022-10-24T06:32:26.093Z,16.05
2022-10-24T06:34:52.866Z,14.40
2022-10-24T06:37:19.795Z,13.95
2022-10-24T06:39:46.556Z,15.30
2022-10-24T06:42:13.919Z,15.20
2022-10-24T06:44:40.680Z,15.80
2022-10-24T06:47:07.690Z,16.27
2022-10-24T06:49:34.420Z,15.50
2022-10-24T06:52:12.674Z,17.88
2022-10-24T06:54:41.076Z,17.60
2022-10-24T06:57:08.111Z,18.30
2022-10-24T06:59:34.932Z,16.77
2022-10-24T07:02:05.049Z,17.80
2022-10-24T07:04:32.969Z,16.85
2022-10-24T07:06:59.896Z,16.35
2022-10-24T07:09:26.632Z,17.35
2022-10-24T07:11:53.553Z,16.45
2022-10-24T07:14:20.270Z,18.02
2022-10-24T07:16:47.245Z,16.35
2022-10-24T07:19:13.971Z,16.52
2022-10-24T07:21:40.969Z,16.55
2022-10-24T07:24:08.106Z,14.32
2022-10-24T07:26:35.191Z,15.73
2022-10-24T07:31:35.755Z,17.15
2022-10-24T07:34:06.031Z,16.00
2022-10-24T07:36:33.234Z,15.43
2022-10-24T07:39:01.173Z,16.63
2022-10-24T07:41:30.612Z,15.20
2022-10-24T07:43:59.343Z,16.10
2022-10-24T07:46:26.327Z,15.60
2022-10-24T07:48:53.837Z,17.20
2022-10-24T07:51:21.567Z,17.40
2022-10-24T07:53:48.965Z,16.63
2022-10-24T07:56:17.922Z,17.70
2022-10-24T07:58:46.561Z,17.20
2022-10-24T08:01:19.374Z,19.00
2022-10-24T08:03:47.045Z,18.13
2022-10-24T08:06:17.836Z,15.73
2022-10-24T08:08:45.119Z,16.92
2022-10-24T08:11:17.573Z,16.65
2022-10-24T08:13:44.669Z,17.13
2022-10-24T08:16:13.584Z,16.58
2022-10-24T08:18:41.020Z,15.63
2022-10-24T08:21:10.874Z,15.80
2022-10-24T08:23:42.556Z,17.55
2022-10-24T08:26:13.408Z,16.20
2022-10-24T08:28:41.091Z,13.30
2022-10-24T08:31:14.079Z,13.85
2022-10-24T08:33:41.267Z,14.20
2022-10-24T08:36:30.137Z,16.40
2022-10-24T08:39:00.301Z,14.15
2022-10-24T08:41:43.789Z,13.80
2022-10-24T08:44:20.893Z,13.98
2022-10-24T08:47:09.912Z,13.82
2022-10-24T08:49:44.172Z,14.38
2022-10-24T08:52:13.387Z,14.00
2022-10-24T08:54:42.867Z,14.27
2022-10-24T08:57:22.423Z,13.10
2022-10-24T08:59:55.012Z,15.15
2022-10-24T09:02:26.981Z,14.98
2022-10-24T09:04:58.591Z,14.32
2022-10-24T09:07:25.983Z,13.77
2022-10-24T09:10:26.223Z,12.38
2022-10-24T09:12:53.175Z,12.88
2022-10-24T09:15:29.354Z,13.82
2022-10-24T09:18:01.791Z,13.98
2022-10-24T09:20:33.442Z,13.43
2022-10-24T09:23:05.003Z,14.13
2022-10-24T09:25:41.619Z,12.45
2022-10-24T09:28:15.631Z,12.10
2022-10-24T09:30:45.351Z,12.90
2022-10-24T09:33:35.220Z,12.88
2022-10-24T09:36:05.192Z,14.13
2022-10-24T09:38:34.996Z,13.60
2022-10-24T09:41:13.815Z,16.73
2022-10-24T09:43:43.843Z,13.93
2022-10-24T09:46:15.230Z,15.00
2022-10-24T09:48:42.123Z,15.30
2022-10-24T09:51:08.980Z,13.23
2022-10-24T09:53:39.576Z,13.15
2022-10-24T09:56:15.857Z,13.82
2022-10-24T09:58:43.169Z,13.07
2022-10-24T10:01:16.129Z,13.55
2022-10-24T10:03:43.833Z,13.95
2022-10-24T10:06:21.048Z,14.73
2022-10-24T10:08:54.243Z,14.15
2022-10-24T10:11:35.183Z,13.98
2022-10-24T10:16:42.785Z,14.02
2022-10-24T10:19:20.339Z,14.88
2022-10-24T10:22:00.286Z,15.23
2022-10-24T10:24:37.315Z,16.65
2022-10-24T10:27:35.059Z,15.23
2022-10-24T10:30:17.014Z,14.38
2022-10-24T10:33:01.972Z,15.55
2022-10-24T10:35:37.020Z,14.57
2022-10-24T10:38:25.435Z,15.25
2022-10-24T10:41:16.771Z,13.60
2022-10-24T10:43:55.651Z,15.43
2022-10-24T10:46:45.613Z,14.95
2022-10-24T10:49:28.572Z,14.45
2022-10-24T10:52:07.241Z,14.90
2022-10-24T10:54:42.989Z,13.85
2022-10-24T10:57:29.147Z,15.30
2022-10-24T11:00:08.180Z,14.43
2022-10-24T11:02:53.218Z,15.00
2022-10-24T11:05:36.055Z,17.02
2022-10-24T11:08:21.011Z,15.68
2022-10-24T11:11:00.687Z,18.52
2022-10-24T11:13:34.437Z,17.95
2022-10-24T11:16:05.632Z,16.45
2022-10-24T11:18:37.715Z,17.67
2022-10-24T11:21:09.974Z,19.58
2022-10-24T11:23:57.299Z,17.55
2022-10-24T11:26:32.893Z,18.83
2022-10-24T11:29:23.873Z,18.88
2022-10-24T11:31:56.772Z,21.27
2022-10-24T11:34:44.493Z,19.75
2022-10-24T11:37:21.101Z,19.95
2022-10-24T11:39:57.359Z,19.23
2022-10-24T11:42:37.490Z,20.48
2022-10-24T11:45:12.516Z,20.80
2022-10-24T11:48:19.476Z,20.92
2022-10-24T11:50:57.457Z,18.58
2022-10-24T11:53:32.824Z,22.13
2022-10-24T11:56:15.327Z,20.42
2022-10-24T11:59:12.427Z,20.80
2022-10-24T12:01:39.346Z,22.27
2022-10-24T12:04:44.493Z,22.42
2022-10-24T12:07:45.121Z,19.95
2022-10-24T12:10:40.047Z,21.77
2022-10-24T12:13:29.699Z,21.50
2022-10-24T12:16:08.460Z,23.00
2022-10-24T12:18:43.443Z,22.33
2022-10-24T12:21:22.141Z,19.23
2022-10-24T12:23:55.125Z,22.40
2022-10-24T12:26:28.046Z,19.55
2022-10-24T12:28:57.221Z,21.90
2022-10-24T12:31:32.907Z,20.38
2022-10-24T12:34:46.133Z,22.02
2022-10-24T12:37:18.127Z,22.52
2022-10-24T12:39:56.217Z,20.05
2022-10-24T12:42:25.376Z,21.63
2022-10-24T12:45:28.152Z,22.80
2022-10-24T12:50:22.722Z,21.45
2022-10-24T12:53:15.682Z,22.08
2022-10-24T12:55:42.600Z,21.05
2022-10-24T12:58:29.205Z,21.23
2022-10-24T13:01:02.538Z,20.08
2022-10-24T13:03:50.644Z,21.02
2022-10-24T13:06:48.618Z,21.83
2022-10-24T13:09:37.257Z,21.38
2022-10-24T13:12:27.171Z,21.88
2022-10-24T13:15:01.113Z,21.27
2022-10-24T13:17:46.632Z,19.77
2022-10-24T13:20:27.729Z,19.88
2022-10-24T13:23:05.720Z,21.40
2022-10-24T13:25:37.515Z,19.88
2022-10-24T13:28:19.931Z,20.33
2022-10-24T13:30:49.676Z,19.58
2022-10-24T13:33:41.447Z,21.13
2022-10-24T13:36:27.970Z,22.50
2022-10-24T13:38:59.664Z,18.95
2022-10-24T13:41:34.479Z,19.30
2022-10-24T13:44:27.028Z,19.77
2022-10-24T13:47:10.742Z,17.75
2022-10-24T13:52:24.429Z,18.30
2022-10-24T13:54:58.402Z,18.02
2022-10-24T13:57:37.471Z,18.15
2022-10-24T14:00:20.984Z,18.10
2022-10-24T14:02:48.041Z,18.15
2022-10-24T14:06:05.311Z,18.88
2022-10-24T14:08:36.490Z,19.15
2022-10-24T14:11:13.059Z,20.48
2022-10-24T14:14:06.518Z,18.85
2022-10-24T14:16:35.533Z,20.35
2022-10-24T14:19:27.069Z,18.27
2022-10-24T14:21:58.077Z,19.15
2022-10-24T14:24:25.737Z,19.50
2022-10-24T14:26:56.953Z,20.40
2022-10-24T14:29:31.815Z,18.90
2022-10-24T14:32:02.660Z,18.52
2022-10-24T14:34:35.989Z,19.25
2022-10-24T14:37:09.116Z,18.40
2022-10-24T14:39:36.940Z,17.85
2022-10-24T14:42:04.181Z,17.73
2022-10-24T14:44:33.915Z,18.17
2022-10-24T14:47:18.441Z,17.55
2022-10-24T14:49:45.159Z,16.67
2022-10-24T14:52:22.863Z,15.93
2022-10-24T14:55:14.339Z,14.73
2022-10-24T14:57:47.664Z,17.02
2022-10-24T15:00:27.069Z,14.77
2022-10-24T15:02:57.858Z,17.10
2022-10-24T15:05:36.286Z,16.48
2022-10-24T15:08:27.836Z,16.55
2022-10-24T15:11:05.554Z,14.93
2022-10-24T15:13:34.073Z,17.55
2022-10-24T15:16:01.585Z,15.75
2022-10-24T15:18:46.592Z,16.77
2022-10-24T15:21:17.306Z,16.70
2022-10-24T15:23:50.423Z,16.15
2022-10-24T15:26:26.942Z,14.68
2022-10-24T15:29:05.244Z,15.27
2022-10-24T15:31:36.299Z,17.00
2022-10-24T15:34:04.436Z,15.95
2022-10-24T15:36:34.709Z,14.88
2022-10-24T15:39:24.532Z,14.77
2022-10-24T15:41:52.154Z,16.35
2022-10-24T15:44:28.678Z,15.57
2022-10-24T15:46:55.989Z,15.57
2022-10-24T15:49:23.225Z,15.40
2022-10-24T15:51:51.687Z,16.50
2022-10-24T15:54:21.501Z,16.08
2022-10-24T15:56:49.281Z,15.93
2022-10-24T15:59:17.419Z,16.65
2022-10-24T16:01:56.513Z,17.63
2022-10-24T16:04:28.027Z,16.27
2022-10-24T16:06:54.980Z,16.08
2022-10-24T16:09:28.363Z,16.70
2022-10-24T16:11:55.570Z,16.45
2022-10-24T16:14:26.440Z,15.68
2022-10-24T16:16:55.149Z,15.32
2022-10-24T16:19:23.820Z,15.50
2022-10-24T16:21:50.597Z,15.15
2022-10-24T16:24:18.414Z,15.55
2022-10-24T16:26:47.422Z,16.15
2022-10-24T16:29:14.473Z,15.77
2022-10-24T16:31:42.218Z,15.70
2022-10-24T16:34:12.577Z,15.05
2022-10-24T16:36:41.007Z,15.82
2022-10-24T16:39:08.385Z,15.43
2022-10-24T16:41:35.380Z,17.45
2022-10-24T16:44:03.749Z,16.10
2022-10-24T16:46:30.722Z,14.60
2022-10-24T16:48:57.843Z,16.52
2022-10-24T16:51:32.760Z,18.55
2022-10-24T16:54:01.526Z,15.02
2022-10-24T16:56:29.266Z,15.82
2022-10-24T16:58:56.397Z,14.93
2022-10-24T17:01:23.421Z,17.15
2022-10-24T17:03:50.793Z,17.75
2022-10-24T17:06:17.788Z,16.95
2022-10-24T17:08:44.903Z,15.45
2022-10-24T17:11:32.605Z,15.27
2022-10-24T17:13:59.152Z,16.55
2022-10-24T17:16:26.373Z,16.80
2022-10-24T17:19:05.580Z,17.05
2022-10-24T17:21:39.386Z,17.77
2022-10-24T17:24:10.591Z,22.58
2022-10-24T17:29:08.529Z,20.63
2022-10-24T17:31:35.875Z,24.15
2022-10-24T17:34:03.606Z,25.02
2022-10-24T17:36:36.703Z,22.08
2022-10-24T17:39:17.777Z,22.15
2022-10-24T17:41:44.832Z,20.17
2022-10-24T17:44:18.296Z,19.33
2022-10-24T17:46:45.383Z,20.65
2022-10-24T17:49:17.816Z,22.35
2022-10-24T17:51:48.792Z,23.25
2022-10-24T17:54:16.108Z,21.77
2022-10-24T17:56:43.101Z,22.20
2022-10-24T17:59:13.176Z,23.60
2022-10-24T18:01:41.036Z,23.13
2022-10-24T18:04:08.242Z,25.08
2022-10-24T18:06:39.401Z,23.80
2022-10-24T18:09:10.987Z,22.73
2022-10-24T18:11:38.852Z,24.90
2022-10-24T18:14:05.911Z,24.65
2022-10-24T18:16:32.933Z,22.15
2022-10-24T18:18:59.926Z,25.45
2022-10-24T18:21:28.405Z,24.42
2022-10-24T18:23:56.081Z,22.83
2022-10-24T18:26:26.935Z,23.38
2022-10-24T18:28:55.518Z,23.55
2022-10-24T18:31:26.240Z,22.58
2022-10-24T18:33:53.880Z,23.00
2022-10-24T18:36:24.393Z,24.02
2022-10-24T18:38:54.380Z,24.10
2022-10-24T18:41:21.040Z,23.83
2022-10-24T18:43:48.263Z,23.60
2022-10-24T18:46:15.308Z,24.02
2022-10-24T18:48:42.473Z,23.90
2022-10-24T18:51:25.638Z,23.70
2022-10-24T18:53:53.876Z,25.83
2022-10-24T18:56:20.934Z,24.15
2022-10-24T18:58:49.695Z,23.63
2022-10-24T19:01:26.817Z,22.40
2022-10-24T19:03:57.422Z,23.42
2022-10-24T19:06:26.623Z,23.23
2022-10-24T19:08:53.973Z,22.52
2022-10-24T19:11:22.470Z,24.23
2022-10-24T19:13:52.769Z,23.75
2022-10-24T19:16:28.877Z,25.15
2022-10-24T19:18:59.993Z,23.58
2022-10-24T19:21:26.758Z,24.88
2022-10-24T19:23:54.103Z,23.90
2022-10-24T19:26:20.959Z,24.27
2022-10-24T19:28:48.003Z,23.30
2022-10-24T19:31:16.460Z,24.38
2022-10-24T19:33:43.546Z,23.58
2022-10-24T19:36:14.359Z,24.05
2022-10-24T19:38:44.014Z,23.40
2022-10-24T19:41:11.762Z,22.15
2022-10-24T19:43:38.879Z,23.45
2022-10-24T19:46:18.835Z,22.85
2022-10-24T19:48:49.259Z,23.33
2022-10-24T19:51:17.916Z,23.48
2022-10-24T19:53:45.307Z,22.63
2022-10-24T19:56:23.971Z,22.15
2022-10-24T19:58:53.340Z,23.10
2022-10-24T20:01:26.201Z,24.60
2022-10-24T20:03:55.457Z,24.63
2022-10-24T20:06:24.051Z,24.27
2022-10-24T20:08:51.010Z,23.60
2022-10-24T20:11:20.386Z,27.42
2022-10-24T20:13:48.772Z,25.55
2022-10-24T20:16:15.957Z,28.73
2022-10-24T20:18:43.626Z,27.45
2022-10-24T20:21:13.054Z,28.55
2022-10-24T20:23:41.617Z,26.25
2022-10-24T20:26:14.200Z,27.73
2022-10-24T20:28:44.879Z,26.13
2022-10-24T20:31:33.468Z,27.15
2022-10-24T20:34:07.996Z,24.85
2022-10-24T20:36:40.716Z,26.85
2022-10-24T20:39:08.527Z,25.13
2022-10-24T20:41:36.447Z,26.15
2022-10-24T20:44:04.725Z,28.05
2022-10-24T20:46:36.493Z,26.88
2022-10-24T20:49:05.182Z,27.73
2022-10-24T20:51:33.099Z,25.98
2022-10-24T20:54:00.086Z,25.60
2022-10-24T20:56:27.087Z,26.33
2022-10-24T20:58:55.515Z,28.40
2022-10-24T21:01:26.149Z,27.75
2022-10-24T21:03:55.812Z,29.92
2022-10-24T21:06:25.113Z,26.23
2022-10-24T21:08:55.078Z,31.27
2022-10-24T21:11:27.563Z,30.00
2022-10-24T21:13:59.673Z,30.77
2022-10-24T21:16:30.371Z,31.13
2022-10-24T21:19:01.096Z,28.10
2022-10-24T21:21:27.995Z,29.10
2022-10-24T21:24:03.866Z,29.05
2022-10-24T21:26:38.479Z,28.63
2022-10-24T21:29:20.645Z,27.50
2022-10-24T21:31:59.864Z,28.30
2022-10-24T21:34:28.859Z,28.45
2022-10-24T21:36:58.548Z,27.17
2022-10-24T21:39:25.504Z,27.98
2022-10-24T21:41:52.326Z,28.00
2022-10-24T21:44:23.200Z,27.45
2022-10-24T21:46:54.466Z,26.27
2022-10-24T21:49:21.505Z,26.77
2022-10-24T21:51:49.161Z,28.02
2022-10-24T21:54:22.206Z,27.67
2022-10-24T21:56:49.548Z,28.13
2022-10-24T21:59:21.016Z,28.10
2022-10-24T22:01:49.673Z,25.70
2022-10-24T22:04:17.974Z,27.90
2022-10-24T22:06:45.409Z,27.75
2022-10-24T22:09:20.345Z,29.42
2022-10-24T22:11:47.525Z,27.77
2022-10-24T22:14:16.049Z,28.85
2022-10-24T22:16:43.636Z,26.65
2022-10-24T22:19:12.901Z,26.15
2022-10-24T22:21:46.371Z,26.15
2022-10-24T22:24:19.403Z,27.58
2022-10-24T22:26:46.228Z,24.77
2022-10-24T22:29:19.625Z,24.92
2022-10-24T22:31:47.512Z,25.33
2022-10-24T22:34:20.370Z,25.15
2022-10-24T22:37:05.450Z,23.25
2022-10-24T22:39:33.863Z,25.10
2022-10-24T22:42:01.128Z,23.70
2022-10-24T22:44:28.306Z,23.73
2022-10-24T22:47:16.359Z,23.83
2022-10-24T22:49:56.413Z,22.42
2022-10-24T22:52:23.369Z,26.05
2022-10-24T22:54:53.440Z,24.58
2022-10-24T22:57:20.617Z,22.63
2022-10-24T22:59:50.860Z,25.42
2022-10-24T23:02:28.161Z,25.25
2022-10-24T23:05:04.519Z,25.80
2022-10-24T23:07:43.959Z,24.83
2022-10-24T23:10:15.212Z,23.10
2022-10-24T23:12:42.810Z,27.15
2022-10-24T23:15:14.328Z,26.23
2022-10-24T23:17:41.699Z,28.23
2022-10-24T23:20:28.375Z,27.45
2022-10-24T23:23:09.041Z,24.33
2022-10-24T23:25:50.436Z,28.00
2022-10-24T23:33:32.635Z,25.48
2022-10-24T23:36:00.957Z,27.40
2022-10-24T23:38:28.483Z,26.80
2022-10-24T23:40:57.973Z,26.33
2022-10-24T23:43:25.016Z,27.42
2022-10-24T23:46:00.031Z,26.60
2022-10-24T23:48:53.403Z,26.45
2022-10-24T23:52:00.910Z,25.15
2022-10-24T23:54:32.479Z,26.77
2022-10-24T23:57:00.432Z,25.80
2022-10-24T23:59:27.371Z,27.48
